createdAt,value
2022-09-10T00:01:40.771Z,14.53
2022-09-10T00:04:11.451Z,14.54
2022-09-10T00:06:40.640Z,14.56
2022-09-10T00:09:09.755Z,14.60
2022-09-10T00:11:41.099Z,14.61
2022-09-10T00:14:17.365Z,14.57
2022-09-10T00:16:47.158Z,14.54
2022-09-10T00:19:15.959Z,14.53
2022-09-10T00:21:45.201Z,14.55
2022-09-10T00:24:13.901Z,14.54
2022-09-10T00:26:42.575Z,14.50
2022-09-10T00:29:13.004Z,14.52
2022-09-10T00:31:42.594Z,14.53
2022-09-10T00:34:14.347Z,14.55
2022-09-10T00:36:44.319Z,14.60
2022-09-10T00:39:16.902Z,14.61
2022-09-10T00:41:47.703Z,14.63
2022-09-10T00:44:54.333Z,14.61
2022-09-10T00:47:27.676Z,14.54
2022-09-10T00:50:06.366Z,14.53
2022-09-10T00:52:39.566Z,14.52
2022-09-10T00:55:11.096Z,14.47
2022-09-10T00:57:40.994Z,14.47
2022-09-10T01:00:12.260Z,14.49
2022-09-10T01:02:42.041Z,14.48
2022-09-10T01:05:12.995Z,14.45
2022-09-10T01:07:42.853Z,14.43
2022-09-10T01:10:15.557Z,14.42
2022-09-10T01:12:59.399Z,14.42
2022-09-10T01:15:35.402Z,14.46
2022-09-10T01:18:17.721Z,14.49
2022-09-10T01:21:11.588Z,14.50
2022-09-10T01:24:22.422Z,14.50
2022-09-10T01:27:32.093Z,14.49
2022-09-10T01:30:06.777Z,14.47
2022-09-10T01:33:00.284Z,14.46
2022-09-10T01:35:36.489Z,14.45
2022-09-10T01:38:10.005Z,14.45
2022-09-10T01:40:38.955Z,14.46
2022-09-10T01:43:09.841Z,14.48
2022-09-10T01:45:48.195Z,14.50
2022-09-10T01:48:40.650Z,14.52
2022-09-10T01:51:19.846Z,14.52
2022-09-10T01:54:12.083Z,14.53
2022-09-10T01:56:45.753Z,14.47
2022-09-10T01:59:23.082Z,14.45
2022-09-10T02:01:59.348Z,14.38
2022-09-10T02:04:29.048Z,14.34
2022-09-10T02:06:58.291Z,14.33
2022-09-10T02:09:27.693Z,14.35
2022-09-10T02:11:56.863Z,14.39
2022-09-10T02:14:25.452Z,14.42
2022-09-10T02:16:58.764Z,14.40
2022-09-10T02:19:28.174Z,14.38
2022-09-10T02:21:58.924Z,14.39
2022-09-10T02:24:27.364Z,14.44
2022-09-10T02:26:55.828Z,14.46
2022-09-10T02:29:24.526Z,14.49
2022-09-10T02:31:52.945Z,14.53
2022-09-10T02:34:23.099Z,14.54
2022-09-10T02:36:51.438Z,14.57
2022-09-10T02:39:20.049Z,14.59
2022-09-10T02:41:48.409Z,14.61
2022-09-10T02:44:16.780Z,14.61
2022-09-10T02:46:45.384Z,14.61
2022-09-10T02:49:13.763Z,14.60
2022-09-10T02:51:44.617Z,14.58
2022-09-10T02:54:12.974Z,14.53
2022-09-10T02:56:41.281Z,14.53
2022-09-10T02:59:09.761Z,14.50
2022-09-10T03:01:38.656Z,14.52
2022-09-10T03:04:08.091Z,14.50
2022-09-10T03:06:37.013Z,14.52
2022-09-10T03:09:06.827Z,14.53
2022-09-10T03:11:40.760Z,14.53
2022-09-10T03:14:12.188Z,14.48
2022-09-10T03:16:41.209Z,14.43
2022-09-10T03:19:10.490Z,14.40
2022-09-10T03:21:41.436Z,14.37
2022-09-10T03:24:15.182Z,14.35
2022-09-10T03:26:44.479Z,14.34
2022-09-10T03:29:15.565Z,14.32
2022-09-10T03:31:46.444Z,14.31
2022-09-10T03:34:15.346Z,14.28
2022-09-10T03:36:43.760Z,14.26
2022-09-10T03:39:15.087Z,14.22
2022-09-10T03:41:45.409Z,14.19
2022-09-10T03:44:13.936Z,14.17
2022-09-10T03:46:42.435Z,14.16
2022-09-10T03:49:11.013Z,14.17
2022-09-10T03:51:39.435Z,14.18
2022-09-10T03:54:07.755Z,14.14
2022-09-10T03:56:37.542Z,14.11
2022-09-10T03:59:05.887Z,14.09
2022-09-10T04:01:34.227Z,14.08
2022-09-10T04:04:03.306Z,14.04
2022-09-10T04:06:33.313Z,14.03
2022-09-10T04:09:02.710Z,14.03
2022-09-10T04:11:31.053Z,14.04
2022-09-10T04:14:01.685Z,14.06
2022-09-10T04:16:32.152Z,14.05
2022-09-10T04:19:01.126Z,14.04
2022-09-10T04:21:29.483Z,14.05
2022-09-10T04:24:00.307Z,14.07
2022-09-10T04:26:28.727Z,14.08
2022-09-10T04:28:57.306Z,14.10
2022-09-10T04:31:27.084Z,14.10
2022-09-10T04:33:55.392Z,14.12
2022-09-10T04:36:23.744Z,14.09
2022-09-10T04:38:52.118Z,14.08
2022-09-10T04:41:20.440Z,14.06
2022-09-10T04:43:49.108Z,14.05
2022-09-10T04:46:17.946Z,14.03
2022-09-10T04:48:47.920Z,14.03
2022-09-10T04:51:18.110Z,14.00
2022-09-10T04:53:47.095Z,13.99
2022-09-10T04:56:15.773Z,13.99
2022-09-10T04:58:44.615Z,14.01
2022-09-10T05:01:13.931Z,14.03
2022-09-10T05:03:42.394Z,14.04
2022-09-10T05:06:12.216Z,14.03
2022-09-10T05:08:40.742Z,14.01
2022-09-10T05:11:09.292Z,13.99
2022-09-10T05:13:37.692Z,13.99
2022-09-10T05:16:06.331Z,14.01
2022-09-10T05:18:34.868Z,14.01
2022-09-10T05:21:05.264Z,14.02
2022-09-10T05:23:35.017Z,14.06
2022-09-10T05:26:03.402Z,14.08
2022-09-10T05:28:31.769Z,14.08
2022-09-10T05:31:00.368Z,14.07
2022-09-10T05:33:28.900Z,14.06
2022-09-10T05:35:57.256Z,14.08
2022-09-10T05:38:26.609Z,14.09
2022-09-10T05:40:57.119Z,14.08
2022-09-10T05:43:25.590Z,14.08
2022-09-10T05:45:54.116Z,14.10
2022-09-10T05:48:22.670Z,14.14
2022-09-10T05:50:51.039Z,14.16
2022-09-10T05:53:19.374Z,14.17
2022-09-10T05:55:47.707Z,14.18
2022-09-10T05:58:17.490Z,14.16
2022-09-10T06:00:46.621Z,14.16
2022-09-10T06:03:15.025Z,14.20
2022-09-10T06:05:50.348Z,14.19
2022-09-10T06:08:20.683Z,14.18
2022-09-10T06:10:57.344Z,14.23
2022-09-10T06:13:27.907Z,14.24
2022-09-10T06:15:56.309Z,14.22
2022-09-10T06:18:24.927Z,14.19
2022-09-10T06:21:03.490Z,14.23
2022-09-10T06:23:32.186Z,14.26
2022-09-10T06:26:04.027Z,14.30
2022-09-10T06:28:35.149Z,14.28
2022-09-10T06:31:05.322Z,14.27
2022-09-10T06:33:35.287Z,14.27
2022-09-10T06:36:04.266Z,14.24
2022-09-10T06:38:34.269Z,14.22
2022-09-10T06:41:05.854Z,14.21
2022-09-10T06:43:38.565Z,14.24
2022-09-10T06:46:32.105Z,14.26
2022-09-10T06:49:00.978Z,14.25
2022-09-10T06:51:29.638Z,14.22
2022-09-10T06:53:57.964Z,14.19
2022-09-10T06:56:26.367Z,14.21
2022-09-10T06:59:01.516Z,14.22
2022-09-10T07:01:31.100Z,14.24
2022-09-10T07:04:02.348Z,14.21
2022-09-10T07:06:33.658Z,14.17
2022-09-10T07:09:02.434Z,14.21
2022-09-10T07:11:32.229Z,14.20
2022-09-10T07:14:02.234Z,14.21
2022-09-10T07:16:30.866Z,14.27
2022-09-10T07:19:00.982Z,14.32
2022-09-10T07:21:30.203Z,14.34
2022-09-10T07:24:01.722Z,14.37
2022-09-10T07:26:30.657Z,14.46
2022-09-10T07:29:01.128Z,14.54
2022-09-10T07:31:31.360Z,14.62
2022-09-10T07:34:00.992Z,14.71
2022-09-10T07:36:30.577Z,14.76
2022-09-10T07:39:01.646Z,14.82
2022-09-10T07:41:31.945Z,14.83
2022-09-10T07:44:01.673Z,14.83
2022-09-10T07:46:30.577Z,14.84
2022-09-10T07:49:00.723Z,14.83
2022-09-10T07:51:32.417Z,14.83
2022-09-10T07:54:01.045Z,14.89
2022-09-10T07:56:32.467Z,14.91
2022-09-10T07:59:02.703Z,14.93
2022-09-10T08:01:31.749Z,14.93
2022-09-10T08:04:00.408Z,14.93
2022-09-10T08:06:28.821Z,14.95
2022-09-10T08:08:57.191Z,15.04
2022-09-10T08:11:25.876Z,15.08
2022-09-10T08:13:56.783Z,15.14
2022-09-10T08:16:27.020Z,15.22
2022-09-10T08:18:56.920Z,15.31
2022-09-10T08:21:25.905Z,15.36
2022-09-10T08:23:55.887Z,15.40
2022-09-10T08:26:25.473Z,15.48
2022-09-10T08:28:55.894Z,15.53
2022-09-10T08:31:27.032Z,15.55
2022-09-10T08:33:56.834Z,15.58
2022-09-10T08:36:25.727Z,15.61
2022-09-10T08:38:59.834Z,15.68
2022-09-10T08:41:40.225Z,15.73
2022-09-10T08:44:16.163Z,15.78
2022-09-10T08:46:49.480Z,15.87
2022-09-10T08:49:27.169Z,15.97
2022-09-10T08:52:02.010Z,16.10
2022-09-10T08:54:38.093Z,16.20
2022-09-10T08:57:16.888Z,16.28
2022-09-10T08:59:50.152Z,16.32
2022-09-10T09:02:47.339Z,16.32
2022-09-10T09:05:17.133Z,16.31
2022-09-10T09:07:47.099Z,16.29
2022-09-10T09:10:21.071Z,16.27
2022-09-10T09:13:02.958Z,16.32
2022-09-10T09:15:41.621Z,16.39
2022-09-10T09:18:21.521Z,16.52
2022-09-10T09:20:55.861Z,16.67
2022-09-10T09:23:26.415Z,16.84
2022-09-10T09:25:59.560Z,16.98
2022-09-10T09:28:37.047Z,17.10
2022-09-10T09:31:12.890Z,17.20
2022-09-10T09:33:43.175Z,17.24
2022-09-10T09:36:16.825Z,17.25
2022-09-10T09:38:50.790Z,17.22
2022-09-10T09:41:26.055Z,17.20
2022-09-10T09:43:59.912Z,17.22
2022-09-10T09:46:28.249Z,17.23
2022-09-10T09:49:00.970Z,17.23
2022-09-10T09:51:35.594Z,17.25
2022-09-10T09:57:00.027Z,17.21
2022-09-10T09:59:30.486Z,17.01
2022-09-10T10:02:05.518Z,16.80
2022-09-10T10:04:41.515Z,16.60
2022-09-10T10:07:12.579Z,16.44
2022-09-10T10:09:44.551Z,16.40
2022-09-10T10:12:21.115Z,16.32
2022-09-10T10:14:51.400Z,16.22
2022-09-10T10:17:38.726Z,16.08
2022-09-10T10:20:12.094Z,15.93
2022-09-10T10:22:41.460Z,15.74
2022-09-10T10:25:38.232Z,15.53
2022-09-10T10:28:16.519Z,15.39
2022-09-10T10:30:45.374Z,15.38
2022-09-10T10:33:19.428Z,15.41
2022-09-10T10:35:51.652Z,15.43
2022-09-10T10:38:30.519Z,15.45
2022-09-10T10:41:38.694Z,15.44
2022-09-10T10:44:26.327Z,15.45
2022-09-10T10:47:05.903Z,15.46
2022-09-10T10:49:50.513Z,15.45
2022-09-10T10:52:27.720Z,15.47
2022-09-10T10:55:10.072Z,15.52
2022-09-10T10:57:56.456Z,15.58
2022-09-10T11:00:25.714Z,15.62
2022-09-10T11:03:03.524Z,15.66
2022-09-10T11:05:38.561Z,15.72
2022-09-10T11:08:15.117Z,15.81
2022-09-10T11:10:47.997Z,15.95
2022-09-10T11:13:23.047Z,16.08
2022-09-10T11:15:59.450Z,16.23
2022-09-10T11:18:33.970Z,16.36
2022-09-10T11:21:11.695Z,16.39
2022-09-10T11:23:47.804Z,16.42
2022-09-10T11:26:23.015Z,16.50
2022-09-10T11:29:00.549Z,16.59
2022-09-10T11:31:33.783Z,16.67
2022-09-10T11:34:06.946Z,16.76
2022-09-10T11:36:43.813Z,16.89
2022-09-10T11:39:20.480Z,16.98
2022-09-10T11:41:52.001Z,17.09
2022-09-10T11:44:48.536Z,17.21
2022-09-10T11:47:22.424Z,17.29
2022-09-10T11:49:55.705Z,17.35
2022-09-10T11:52:26.064Z,17.40
2022-09-10T11:54:57.305Z,17.44
2022-09-10T11:57:35.164Z,17.52
2022-09-10T12:00:12.166Z,17.59
2022-09-10T12:03:03.563Z,17.65
2022-09-10T12:05:40.579Z,17.71
2022-09-10T12:08:19.895Z,17.77
2022-09-10T12:11:04.222Z,17.84
2022-09-10T12:13:33.470Z,17.89
2022-09-10T12:16:09.079Z,17.99
2022-09-10T12:18:45.017Z,18.14
2022-09-10T12:21:27.968Z,18.21
2022-09-10T12:23:57.809Z,18.19
2022-09-10T12:26:27.886Z,18.16
2022-09-10T12:29:02.255Z,18.23
2022-09-10T12:32:09.412Z,18.37
2022-09-10T12:34:38.117Z,18.47
2022-09-10T12:37:26.458Z,18.54
2022-09-10T12:40:32.529Z,18.62
2022-09-10T12:43:40.845Z,18.68
2022-09-10T12:46:19.677Z,18.79
2022-09-10T12:48:50.976Z,18.92
2022-09-10T12:51:33.498Z,19.04
2022-09-10T12:54:20.305Z,19.11
2022-09-10T12:57:10.758Z,19.22
2022-09-10T13:00:23.148Z,19.27
2022-09-10T13:02:56.283Z,19.33
2022-09-10T13:05:29.945Z,19.35
2022-09-10T13:08:08.223Z,19.28
2022-09-10T13:10:37.421Z,19.25
2022-09-10T13:13:23.409Z,19.24
2022-09-10T13:15:54.998Z,19.30
2022-09-10T13:18:27.054Z,19.35
2022-09-10T13:20:55.712Z,19.40
2022-09-10T13:23:47.540Z,19.42
2022-09-10T13:26:48.478Z,19.41
2022-09-10T13:29:34.272Z,19.43
2022-09-10T13:32:09.328Z,19.34
2022-09-10T13:35:17.054Z,19.30
2022-09-10T13:38:21.153Z,19.24
2022-09-10T13:41:06.478Z,19.32
2022-09-10T13:44:01.341Z,19.48
2022-09-10T13:46:37.440Z,19.67
2022-09-10T13:49:15.247Z,19.72
2022-09-10T13:51:51.210Z,19.89
2022-09-10T13:54:33.091Z,20.02
2022-09-10T13:57:07.153Z,20.07
2022-09-10T13:59:38.006Z,20.14
2022-09-10T14:02:06.479Z,20.15
2022-09-10T14:04:40.898Z,20.08
2022-09-10T14:07:16.159Z,20.12
2022-09-10T14:09:47.118Z,19.98
2022-09-10T14:12:17.776Z,19.90
2022-09-10T14:14:51.328Z,19.94
2022-09-10T14:17:23.756Z,20.05
2022-09-10T14:19:59.121Z,20.24
2022-09-10T14:22:28.959Z,20.27
2022-09-10T14:24:59.807Z,20.33
2022-09-10T14:27:31.039Z,20.32
2022-09-10T14:30:23.022Z,20.39
2022-09-10T14:32:52.976Z,20.37
2022-09-10T14:35:42.929Z,20.37
2022-09-10T14:38:29.064Z,20.35
2022-09-10T14:41:03.410Z,20.17
2022-09-10T14:43:38.065Z,20.02
2022-09-10T14:46:09.102Z,20.16
2022-09-10T14:48:41.017Z,20.29
2022-09-10T14:51:17.575Z,20.42
2022-09-10T14:53:48.483Z,20.45
2022-09-10T14:56:28.596Z,20.53
2022-09-10T14:59:00.845Z,20.64
2022-09-10T15:01:30.528Z,20.68
2022-09-10T15:04:00.490Z,20.70
2022-09-10T15:06:31.701Z,20.66
2022-09-10T15:09:00.878Z,20.71
2022-09-10T15:11:29.857Z,20.87
2022-09-10T15:13:59.419Z,20.91
2022-09-10T15:16:31.008Z,20.81
2022-09-10T15:18:59.452Z,20.69
2022-09-10T15:21:28.082Z,20.46
2022-09-10T15:23:58.069Z,20.24
2022-09-10T15:26:26.546Z,20.13
2022-09-10T15:28:54.864Z,20.03
2022-09-10T15:31:23.711Z,19.97
2022-09-10T15:33:53.232Z,19.92
2022-09-10T15:36:22.457Z,19.88
2022-09-10T15:38:53.885Z,19.81
2022-09-10T15:41:23.975Z,19.69
2022-09-10T15:43:54.226Z,19.65
2022-09-10T15:46:25.750Z,19.65
2022-09-10T15:48:55.637Z,19.68
2022-09-10T15:51:25.037Z,19.74
2022-09-10T15:53:54.927Z,19.83
2022-09-10T15:56:26.033Z,19.86
2022-09-10T15:58:56.166Z,19.91
2022-09-10T16:01:29.410Z,19.97
2022-09-10T16:03:59.232Z,19.98
2022-09-10T16:06:28.480Z,19.92
2022-09-10T16:09:02.032Z,19.83
2022-09-10T16:11:34.790Z,19.83
2022-09-10T16:14:06.809Z,19.84
2022-09-10T16:16:37.208Z,19.82
2022-09-10T16:19:06.744Z,19.78
2022-09-10T16:21:37.567Z,19.74
2022-09-10T16:24:07.555Z,19.73
2022-09-10T16:26:39.859Z,19.71
2022-09-10T16:29:13.348Z,19.69
2022-09-10T16:31:42.944Z,19.71
2022-09-10T16:34:13.487Z,19.72
2022-09-10T16:36:41.863Z,19.71
2022-09-10T16:39:12.870Z,19.64
2022-09-10T16:41:44.880Z,19.53
2022-09-10T16:44:15.281Z,19.43
2022-09-10T16:46:44.236Z,19.35
2022-09-10T16:49:13.904Z,19.25
2022-09-10T16:52:12.033Z,19.08
2022-09-10T16:54:41.921Z,18.97
2022-09-10T16:57:11.615Z,18.92
2022-09-10T16:59:40.052Z,18.83
2022-09-10T17:02:08.451Z,18.76
2022-09-10T17:04:36.803Z,18.68
2022-09-10T17:07:05.331Z,18.58
2022-09-10T17:09:33.737Z,18.49
2022-09-10T17:12:02.462Z,18.43
2022-09-10T17:14:32.340Z,18.36
2022-09-10T17:17:00.696Z,18.34
2022-09-10T17:19:29.340Z,18.32
2022-09-10T17:21:57.852Z,18.28
2022-09-10T17:24:27.967Z,18.22
2022-09-10T17:26:56.684Z,18.16
2022-09-10T17:29:26.449Z,18.14
2022-09-10T17:31:57.404Z,18.16
2022-09-10T17:34:27.190Z,18.14
2022-09-10T17:36:56.313Z,18.15
2022-09-10T17:39:28.134Z,18.16
2022-09-10T17:41:56.795Z,18.16
2022-09-10T17:44:25.823Z,18.16
2022-09-10T17:46:55.151Z,18.16
2022-09-10T17:49:25.578Z,18.12
2022-09-10T17:51:54.336Z,18.06
2022-09-10T17:54:23.405Z,17.99
2022-09-10T17:56:51.833Z,17.94
2022-09-10T17:59:21.914Z,17.93
2022-09-10T18:01:50.290Z,17.89
2022-09-10T18:04:21.071Z,17.83
2022-09-10T18:06:52.568Z,17.79
2022-09-10T18:09:21.978Z,17.77
2022-09-10T18:11:50.564Z,17.74
2022-09-10T18:14:24.413Z,17.70
2022-09-10T18:16:53.970Z,17.67
2022-09-10T18:19:22.924Z,17.64
2022-09-10T18:21:52.630Z,17.58
2022-09-10T18:24:24.166Z,17.56
2022-09-10T18:26:54.673Z,17.57
2022-09-10T18:29:25.254Z,17.50
2022-09-10T18:31:55.875Z,17.37
2022-09-10T18:34:27.740Z,17.22
2022-09-10T18:36:59.858Z,17.08
2022-09-10T18:39:30.070Z,16.96
2022-09-10T18:41:58.916Z,16.84
2022-09-10T18:44:29.453Z,16.74
2022-09-10T18:46:57.797Z,16.67
2022-09-10T18:49:27.375Z,16.64
2022-09-10T18:51:57.713Z,16.63
2022-09-10T18:54:28.744Z,16.63
2022-09-10T18:56:59.435Z,16.61
2022-09-10T18:59:27.995Z,16.59
2022-09-10T19:01:56.899Z,16.58
2022-09-10T19:04:28.202Z,16.58
2022-09-10T19:06:58.921Z,16.55
2022-09-10T19:09:28.983Z,16.59
2022-09-10T19:11:59.198Z,16.63
2022-09-10T19:14:29.427Z,16.61
2022-09-10T19:16:59.454Z,16.61
2022-09-10T19:19:30.069Z,16.63
2022-09-10T19:22:03.786Z,16.65
2022-09-10T19:27:21.348Z,16.58
2022-09-10T19:29:50.318Z,16.58
2022-09-10T19:32:19.771Z,16.61
2022-09-10T19:34:50.781Z,16.61
2022-09-10T19:37:20.763Z,16.56
2022-09-10T19:39:49.192Z,16.53
2022-09-10T19:42:17.819Z,16.59
2022-09-10T19:44:46.454Z,16.63
2022-09-10T19:47:14.837Z,16.63
2022-09-10T19:49:43.582Z,16.64
2022-09-10T19:52:12.028Z,16.58
2022-09-10T19:54:41.859Z,16.49
2022-09-10T19:57:11.552Z,16.42
2022-09-10T19:59:41.328Z,16.38
2022-09-10T20:02:10.873Z,16.35
2022-09-10T20:04:39.276Z,16.30
2022-09-10T20:07:10.556Z,16.25
2022-09-10T20:09:40.050Z,16.26
2022-09-10T20:12:16.377Z,16.30
2022-09-10T20:14:44.830Z,16.32
2022-09-10T20:17:13.650Z,16.33
2022-09-10T20:19:42.201Z,16.31
2022-09-10T20:22:12.039Z,16.34
2022-09-10T20:24:41.527Z,16.38
2022-09-10T20:27:12.691Z,16.38
2022-09-10T20:29:43.299Z,16.39
2022-09-10T20:32:12.907Z,16.39
2022-09-10T20:34:41.666Z,16.36
2022-09-10T20:37:10.764Z,16.32
2022-09-10T20:39:42.238Z,16.28
2022-09-10T20:42:12.367Z,16.30
2022-09-10T20:44:40.761Z,16.33
2022-09-10T20:47:09.165Z,16.34
2022-09-10T20:49:38.313Z,16.33
2022-09-10T20:52:08.054Z,16.25
2022-09-10T20:54:36.547Z,16.24
2022-09-10T20:57:05.185Z,16.19
2022-09-10T20:59:34.932Z,16.16
2022-09-10T21:02:03.731Z,16.16
2022-09-10T21:04:33.499Z,16.12
2022-09-10T21:07:02.459Z,16.12
2022-09-10T21:09:30.992Z,16.13
2022-09-10T21:11:59.842Z,16.13
2022-09-10T21:14:28.323Z,16.13
2022-09-10T21:16:58.085Z,16.15
2022-09-10T21:19:27.322Z,16.18
2022-09-10T21:21:55.697Z,16.18
2022-09-10T21:24:24.339Z,16.20
2022-09-10T21:26:53.618Z,16.20
2022-09-10T21:29:23.074Z,16.18
2022-09-10T21:31:53.264Z,16.15
2022-09-10T21:34:23.104Z,16.14
2022-09-10T21:36:51.742Z,16.14
2022-09-10T21:39:20.138Z,16.16
2022-09-10T21:41:50.697Z,16.16
2022-09-10T21:44:21.990Z,16.20
2022-09-10T21:46:51.035Z,16.21
2022-09-10T21:49:21.604Z,16.19
2022-09-10T21:51:52.089Z,16.17
2022-09-10T21:54:22.239Z,16.15
2022-09-10T21:56:51.551Z,16.13
2022-09-10T21:59:21.389Z,16.12
2022-09-10T22:01:50.432Z,16.13
2022-09-10T22:04:22.758Z,16.15
2022-09-10T22:06:53.940Z,16.15
2022-09-10T22:09:22.714Z,16.18
2022-09-10T22:11:54.300Z,16.18
2022-09-10T22:14:24.169Z,16.14
2022-09-10T22:16:53.743Z,16.19
2022-09-10T22:19:24.664Z,16.14
2022-09-10T22:21:56.777Z,16.13
2022-09-10T22:24:26.144Z,16.10
2022-09-10T22:26:54.699Z,16.09
2022-09-10T22:29:23.621Z,16.08
2022-09-10T22:31:52.331Z,16.12
2022-09-10T22:34:22.562Z,16.08
2022-09-10T22:36:51.100Z,16.03
2022-09-10T22:39:22.797Z,16.02
2022-09-10T22:41:52.294Z,16.03
2022-09-10T22:44:20.858Z,16.06
2022-09-10T22:46:49.600Z,16.10
2022-09-10T22:49:18.141Z,16.12
2022-09-10T22:51:47.047Z,16.14
2022-09-10T22:54:16.601Z,16.19
2022-09-10T22:56:46.570Z,16.22
2022-09-10T22:59:18.482Z,16.25
2022-09-10T23:01:48.399Z,16.27
2022-09-10T23:04:17.523Z,16.26
2022-09-10T23:06:45.953Z,16.27
2022-09-10T23:09:16.182Z,16.25
2022-09-10T23:11:46.795Z,16.22
2022-09-10T23:14:19.275Z,16.18
2022-09-10T23:16:49.949Z,16.16
2022-09-10T23:19:20.350Z,16.14
2022-09-10T23:21:51.164Z,16.12
2022-09-10T23:24:22.006Z,16.09
2022-09-10T23:26:52.057Z,16.08
2022-09-10T23:29:23.393Z,16.10
2022-09-10T23:31:53.400Z,16.08
2022-09-10T23:34:22.525Z,16.06
2022-09-10T23:36:51.364Z,16.05
2022-09-10T23:39:21.469Z,16.01
2022-09-10T23:41:53.768Z,15.98
2022-09-10T23:44:22.717Z,15.96
2022-09-10T23:46:51.178Z,15.99
2022-09-10T23:49:19.720Z,16.00
2022-09-10T23:51:49.181Z,16.01
2022-09-10T23:54:17.842Z,16.00
2022-09-10T23:56:46.432Z,15.98
2022-09-10T23:59:16.492Z,15.98
